createdAt,value
2017-12-12T00:00:37.314Z,6.50
2017-12-12T00:03:04.752Z,15.57
2017-12-12T00:05:32.187Z,5.25
2017-12-12T00:07:59.620Z,7.28
2017-12-12T00:10:27.007Z,3.85
2017-12-12T00:12:54.477Z,8.50
2017-12-12T00:15:21.902Z,6.97
2017-12-12T00:17:49.319Z,4.47
2017-12-12T00:20:16.761Z,6.78
2017-12-12T00:22:44.184Z,3.80
2017-12-12T00:25:11.598Z,3.50
2017-12-12T00:27:39.040Z,5.43
2017-12-12T00:30:06.463Z,3.75
2017-12-12T00:32:33.881Z,7.60
2017-12-12T00:35:01.315Z,12.55
2017-12-12T00:37:28.740Z,4.25
2017-12-12T00:39:56.150Z,3.80
2017-12-12T00:42:23.592Z,4.62
2017-12-12T00:44:51.023Z,3.78
2017-12-12T00:47:18.440Z,4.80
2017-12-12T00:49:45.882Z,3.40
2017-12-12T00:52:13.302Z,3.40
2017-12-12T00:54:40.710Z,3.90
2017-12-12T00:57:08.135Z,3.65
2017-12-12T00:59:35.551Z,3.97
2017-12-12T01:02:03.592Z,3.35
2017-12-12T01:04:31.026Z,4.00
2017-12-12T01:06:58.451Z,16.23
2017-12-12T01:09:25.868Z,3.73
2017-12-12T01:11:53.310Z,7.18
2017-12-12T01:14:20.723Z,14.98
2017-12-12T01:16:48.139Z,17.58
2017-12-12T01:19:15.577Z,7.40
2017-12-12T01:21:42.995Z,11.77
2017-12-12T01:24:10.422Z,8.68
2017-12-12T01:26:37.864Z,14.10
2017-12-12T01:29:05.279Z,4.40
2017-12-12T01:31:32.695Z,5.07
2017-12-12T01:34:00.137Z,9.80
2017-12-12T01:36:27.565Z,7.78
2017-12-12T01:38:54.987Z,10.05
2017-12-12T01:41:22.434Z,4.00
2017-12-12T01:43:49.868Z,3.85
2017-12-12T01:46:17.274Z,4.93
2017-12-12T01:48:44.714Z,4.60
2017-12-12T01:51:12.122Z,3.45
2017-12-12T01:53:39.551Z,7.85
2017-12-12T01:56:06.987Z,9.35
2017-12-12T01:58:34.399Z,3.83
2017-12-12T02:01:01.815Z,4.03
2017-12-12T02:03:29.274Z,3.60
2017-12-12T02:05:56.686Z,3.72
2017-12-12T02:08:24.119Z,4.40
2017-12-12T02:10:51.549Z,3.53
2017-12-12T02:13:18.983Z,4.57
2017-12-12T02:15:46.404Z,3.95
2017-12-12T02:18:13.830Z,4.35
2017-12-12T02:20:41.246Z,3.42
2017-12-12T02:23:08.681Z,3.50
2017-12-12T02:25:36.106Z,4.37
2017-12-12T02:28:03.532Z,4.20
2017-12-12T02:30:30.950Z,3.72
2017-12-12T02:32:58.378Z,3.90
2017-12-12T02:35:25.807Z,14.35
2017-12-12T02:37:53.218Z,3.60
2017-12-12T02:40:20.666Z,4.15
2017-12-12T02:42:48.095Z,3.78
2017-12-12T02:45:15.520Z,3.60
2017-12-12T02:47:42.948Z,3.70
2017-12-12T02:50:10.371Z,2.95
2017-12-12T02:52:37.817Z,3.92
2017-12-12T02:55:05.251Z,3.90
2017-12-12T02:57:32.655Z,3.62
2017-12-12T03:00:00.103Z,3.87
2017-12-12T03:02:27.535Z,3.40
2017-12-12T03:04:54.948Z,3.42
2017-12-12T03:07:22.370Z,6.15
2017-12-12T03:09:49.793Z,3.47
2017-12-12T03:12:17.214Z,3.35
2017-12-12T03:14:44.616Z,3.35
2017-12-12T03:17:12.068Z,3.40
2017-12-12T03:19:39.496Z,3.37
2017-12-12T03:22:06.915Z,3.00
2017-12-12T03:24:34.323Z,3.10
2017-12-12T03:27:01.768Z,3.08
2017-12-12T03:29:29.187Z,2.92
2017-12-12T03:31:56.608Z,4.75
2017-12-12T03:34:24.034Z,3.40
2017-12-12T03:36:51.450Z,3.60
2017-12-12T03:39:18.871Z,3.60
2017-12-12T03:41:46.297Z,3.00
2017-12-12T03:44:13.707Z,3.62
2017-12-12T03:46:41.135Z,3.60
2017-12-12T03:49:08.538Z,3.22
2017-12-12T03:51:35.959Z,3.45
2017-12-12T03:54:03.392Z,3.35
2017-12-12T03:56:30.806Z,3.40
2017-12-12T03:58:58.216Z,3.15
2017-12-12T04:01:25.651Z,3.30
2017-12-12T04:03:53.768Z,3.30
2017-12-12T04:06:21.183Z,3.40
2017-12-12T04:08:48.611Z,3.75
2017-12-12T04:11:16.036Z,3.35
2017-12-12T04:13:43.455Z,3.53
2017-12-12T04:16:10.882Z,3.60
2017-12-12T04:18:38.295Z,3.70
2017-12-12T04:21:05.706Z,3.45
2017-12-12T04:23:33.143Z,4.00
2017-12-12T04:26:00.556Z,3.70
2017-12-12T04:28:27.962Z,3.70
2017-12-12T04:30:55.406Z,3.60
2017-12-12T04:33:22.819Z,3.70
2017-12-12T04:35:50.250Z,3.80
2017-12-12T04:38:17.684Z,3.78
2017-12-12T04:40:45.093Z,6.43
2017-12-12T04:43:12.515Z,4.47
2017-12-12T04:45:39.932Z,3.78
2017-12-12T04:48:07.355Z,4.05
2017-12-12T04:50:34.787Z,3.72
2017-12-12T04:53:02.208Z,4.30
2017-12-12T04:55:29.630Z,3.90
2017-12-12T04:57:57.055Z,3.80
2017-12-12T05:00:24.472Z,3.80
2017-12-12T05:02:51.846Z,4.00
2017-12-12T05:05:19.315Z,3.80
2017-12-12T05:07:46.735Z,4.32
2017-12-12T05:10:14.148Z,4.70
2017-12-12T05:12:41.578Z,4.40
2017-12-12T05:15:08.995Z,5.03
2017-12-12T05:17:36.411Z,4.60
2017-12-12T05:20:03.844Z,4.90
2017-12-12T05:22:31.263Z,4.30
2017-12-12T05:24:58.683Z,5.05
2017-12-12T05:27:26.115Z,5.47
2017-12-12T05:29:53.532Z,5.85
2017-12-12T05:32:20.947Z,5.75
2017-12-12T05:34:48.376Z,6.40
2017-12-12T05:37:15.795Z,6.15
2017-12-12T05:39:43.243Z,6.57
2017-12-12T05:42:10.656Z,6.70
2017-12-12T05:44:38.066Z,6.97
2017-12-12T05:47:05.480Z,6.78
2017-12-12T05:49:32.907Z,8.05
2017-12-12T05:52:00.326Z,7.47
2017-12-12T05:54:27.745Z,7.12
2017-12-12T05:56:55.180Z,7.82
2017-12-12T05:59:22.591Z,6.80
2017-12-12T06:01:50.013Z,6.85
2017-12-12T06:04:17.435Z,7.55
2017-12-12T06:06:44.852Z,8.57
2017-12-12T06:09:12.276Z,8.02
2017-12-12T06:11:39.699Z,9.95
2017-12-12T06:14:07.120Z,8.60
2017-12-12T06:16:34.535Z,6.45
2017-12-12T06:19:01.961Z,6.43
2017-12-12T06:21:29.378Z,7.10
2017-12-12T06:23:56.837Z,8.10
2017-12-12T06:26:24.250Z,7.20
2017-12-12T06:28:51.675Z,10.25
2017-12-12T06:31:19.090Z,7.43
2017-12-12T06:33:46.520Z,7.60
2017-12-12T06:36:13.935Z,7.95
2017-12-12T06:38:41.363Z,15.95
2017-12-12T06:41:08.811Z,10.05
2017-12-12T06:43:36.242Z,6.90
2017-12-12T06:46:03.660Z,7.53
2017-12-12T06:48:31.091Z,7.90
2017-12-12T06:50:58.498Z,7.28
2017-12-12T06:53:25.924Z,7.50
2017-12-12T06:55:53.355Z,9.23
2017-12-12T06:58:20.763Z,10.18
2017-12-12T07:00:48.184Z,7.07
2017-12-12T07:03:15.620Z,7.93
2017-12-12T07:05:43.027Z,8.57
2017-12-12T07:08:10.438Z,7.70
2017-12-12T07:10:37.873Z,8.45
2017-12-12T07:13:05.293Z,7.87
2017-12-12T07:15:32.712Z,8.00
2017-12-12T07:18:00.138Z,8.30
2017-12-12T07:20:27.551Z,7.32
2017-12-12T07:22:54.959Z,7.20
2017-12-12T07:25:22.400Z,6.87
2017-12-12T07:27:49.826Z,5.90
2017-12-12T07:30:17.231Z,9.13
2017-12-12T07:32:44.658Z,7.65
2017-12-12T07:35:12.067Z,5.37
2017-12-12T07:37:39.483Z,5.00
2017-12-12T07:40:06.920Z,5.53
2017-12-12T07:42:34.331Z,5.55
2017-12-12T07:45:01.748Z,5.32
2017-12-12T07:47:29.191Z,5.30
2017-12-12T07:49:56.594Z,5.07
2017-12-12T07:52:24.007Z,6.07
2017-12-12T07:54:51.441Z,8.88
2017-12-12T07:57:18.860Z,10.40
2017-12-12T07:59:46.275Z,5.78
2017-12-12T08:02:13.716Z,5.30
2017-12-12T08:04:41.131Z,7.90
2017-12-12T08:07:08.543Z,5.50
2017-12-12T08:09:35.971Z,5.15
2017-12-12T08:12:03.378Z,4.95
2017-12-12T08:14:30.794Z,4.80
2017-12-12T08:16:58.224Z,6.70
2017-12-12T08:19:25.643Z,4.45
2017-12-12T08:21:53.053Z,5.12
2017-12-12T08:24:20.506Z,5.75
2017-12-12T08:26:47.879Z,5.40
2017-12-12T08:29:15.367Z,4.90
2017-12-12T08:31:42.843Z,5.85
2017-12-12T08:34:10.247Z,5.53
2017-12-12T08:36:37.671Z,4.87
2017-12-12T08:39:05.112Z,5.20
2017-12-12T08:41:32.527Z,5.80
2017-12-12T08:43:59.944Z,5.70
2017-12-12T08:46:27.386Z,6.47
2017-12-12T08:48:54.803Z,5.25
2017-12-12T08:51:22.229Z,6.05
2017-12-12T08:53:49.651Z,8.32
2017-12-12T08:56:17.096Z,5.55
2017-12-12T08:58:44.511Z,8.32
2017-12-12T09:01:11.943Z,6.97
2017-12-12T09:03:39.363Z,5.80
2017-12-12T09:06:06.779Z,6.55
2017-12-12T09:08:34.211Z,4.80
2017-12-12T09:11:01.639Z,5.12
2017-12-12T09:13:29.053Z,38.05
2017-12-12T09:15:56.491Z,6.43
2017-12-12T09:18:23.907Z,20.88
2017-12-12T09:20:51.345Z,11.57
2017-12-12T09:23:18.779Z,19.35
2017-12-12T09:25:46.204Z,6.70
2017-12-12T09:28:13.649Z,11.65
2017-12-12T09:30:41.065Z,9.85
2017-12-12T09:33:08.488Z,5.60
2017-12-12T09:35:35.923Z,14.80
2017-12-12T09:38:03.305Z,5.18
2017-12-12T09:40:30.767Z,14.30
2017-12-12T09:42:58.191Z,4.72
2017-12-12T09:45:25.617Z,9.82
2017-12-12T09:47:53.035Z,4.97
2017-12-12T09:50:20.467Z,7.05
2017-12-12T09:52:47.947Z,7.53
2017-12-12T09:55:15.678Z,5.05
2017-12-12T09:57:43.119Z,8.50
2017-12-12T10:00:10.548Z,5.28
2017-12-12T10:02:37.971Z,5.93
2017-12-12T10:05:05.398Z,8.43
2017-12-12T10:07:32.828Z,7.00
2017-12-12T10:10:00.236Z,5.93
2017-12-12T10:12:27.668Z,7.87
2017-12-12T10:14:55.091Z,6.55
2017-12-12T10:17:22.504Z,5.37
2017-12-12T10:19:49.962Z,7.62
2017-12-12T10:22:17.388Z,14.80
2017-12-12T10:24:44.807Z,19.05
2017-12-12T10:27:12.238Z,5.75
2017-12-12T10:29:39.659Z,6.53
2017-12-12T10:32:07.082Z,11.98
2017-12-12T10:34:34.523Z,17.40
2017-12-12T10:37:01.942Z,23.55
2017-12-12T10:39:29.359Z,6.12
2017-12-12T10:41:56.790Z,5.90
2017-12-12T10:44:24.214Z,5.40
2017-12-12T10:46:51.635Z,9.82
2017-12-12T10:49:19.067Z,5.55
2017-12-12T10:51:46.474Z,8.25
2017-12-12T10:54:13.898Z,8.05
2017-12-12T10:56:41.336Z,9.27
2017-12-12T10:59:08.752Z,5.12
2017-12-12T11:01:36.162Z,6.22
2017-12-12T11:04:03.590Z,9.88
2017-12-12T11:06:31.011Z,5.80
2017-12-12T11:08:58.421Z,5.00
2017-12-12T11:11:25.855Z,7.40
2017-12-12T11:13:53.266Z,7.10
2017-12-12T11:16:20.691Z,5.87
2017-12-12T11:18:48.131Z,6.87
2017-12-12T11:21:15.552Z,8.82
2017-12-12T11:23:42.988Z,11.90
2017-12-12T11:26:10.408Z,9.30
2017-12-12T11:28:37.819Z,5.90
2017-12-12T11:31:05.245Z,8.23
2017-12-12T11:33:32.672Z,6.97
2017-12-12T11:36:00.099Z,6.90
2017-12-12T11:38:27.531Z,9.32
2017-12-12T11:40:54.951Z,5.82
2017-12-12T11:43:22.364Z,5.20
2017-12-12T11:45:49.794Z,5.15
2017-12-12T11:48:17.220Z,8.93
2017-12-12T11:50:44.635Z,9.55
2017-12-12T11:53:12.067Z,7.18
2017-12-12T11:55:39.518Z,7.57
2017-12-12T11:58:06.951Z,9.27
2017-12-12T12:00:34.386Z,11.95
2017-12-12T12:03:01.803Z,5.70
2017-12-12T12:05:29.219Z,7.57
2017-12-12T12:07:56.650Z,10.65
2017-12-12T12:10:24.067Z,5.68
2017-12-12T12:12:51.487Z,19.08
2017-12-12T12:15:18.924Z,14.90
2017-12-12T12:17:46.340Z,8.20
2017-12-12T12:20:13.761Z,12.10
2017-12-12T12:22:41.246Z,7.32
2017-12-12T12:25:08.663Z,7.32
2017-12-12T12:27:36.094Z,6.50
2017-12-12T12:30:03.524Z,8.85
2017-12-12T12:32:30.930Z,5.12
2017-12-12T12:34:58.348Z,8.63
2017-12-12T12:37:25.771Z,7.85
2017-12-12T12:39:53.195Z,10.10
2017-12-12T12:42:20.628Z,9.85
2017-12-12T12:44:48.059Z,12.45
2017-12-12T12:47:15.492Z,13.23
2017-12-12T12:49:42.914Z,5.05
2017-12-12T12:52:10.331Z,5.32
2017-12-12T12:54:37.767Z,5.07
2017-12-12T12:57:05.189Z,6.22
2017-12-12T12:59:32.609Z,5.95
2017-12-12T13:02:00.043Z,5.65
2017-12-12T13:04:27.455Z,4.82
2017-12-12T13:06:54.879Z,12.07
2017-12-12T13:09:22.320Z,5.03
2017-12-12T13:11:49.747Z,12.50
2017-12-12T13:14:17.172Z,6.00
2017-12-12T13:16:44.610Z,7.57
2017-12-12T13:19:12.028Z,5.15
2017-12-12T13:21:39.447Z,5.40
2017-12-12T13:24:06.879Z,4.55
2017-12-12T13:26:34.295Z,4.90
2017-12-12T13:29:01.723Z,4.68
2017-12-12T13:31:29.164Z,4.60
2017-12-12T13:33:56.581Z,5.53
2017-12-12T13:36:24.003Z,4.80
2017-12-12T13:38:51.443Z,4.68
2017-12-12T13:41:18.854Z,5.68
2017-12-12T13:43:46.267Z,4.37
2017-12-12T13:46:13.699Z,5.70
2017-12-12T13:48:41.116Z,4.72
2017-12-12T13:51:08.535Z,4.90
2017-12-12T13:53:35.971Z,5.20
2017-12-12T13:56:03.383Z,5.00
2017-12-12T13:58:30.803Z,5.45
2017-12-12T14:00:58.235Z,5.03
2017-12-12T14:03:25.655Z,4.40
2017-12-12T14:05:53.141Z,7.20
2017-12-12T14:08:20.532Z,6.55
2017-12-12T14:10:47.960Z,9.93
2017-12-12T14:13:16.203Z,8.88
2017-12-12T14:15:43.634Z,6.75
2017-12-12T14:18:11.053Z,4.57
2017-12-12T14:20:38.484Z,7.35
2017-12-12T14:23:05.912Z,4.45
2017-12-12T14:25:33.340Z,4.60
2017-12-12T14:28:00.770Z,4.45
2017-12-12T14:30:28.211Z,4.72
2017-12-12T14:32:55.635Z,6.57
2017-12-12T14:35:23.070Z,4.55
2017-12-12T14:37:50.487Z,5.40
2017-12-12T14:40:17.912Z,4.97
2017-12-12T14:42:45.327Z,4.45
2017-12-12T14:45:12.757Z,8.63
2017-12-12T14:47:40.187Z,7.80
2017-12-12T14:50:07.595Z,7.53
2017-12-12T14:52:35.029Z,8.35
2017-12-12T14:55:02.463Z,11.25
2017-12-12T14:57:29.883Z,10.05
2017-12-12T14:59:57.314Z,13.00
2017-12-12T15:02:24.734Z,13.30
2017-12-12T15:04:52.151Z,13.52
2017-12-12T15:07:19.584Z,8.57
2017-12-12T15:09:47.000Z,10.25
2017-12-12T15:12:14.419Z,6.95
2017-12-12T15:14:41.852Z,8.90
2017-12-12T15:17:09.272Z,32.90
2017-12-12T15:19:36.695Z,7.03
2017-12-12T15:22:04.118Z,8.98
2017-12-12T15:24:31.526Z,7.10
2017-12-12T15:26:58.963Z,8.27
2017-12-12T15:29:26.379Z,15.65
2017-12-12T15:31:53.803Z,6.55
2017-12-12T15:34:21.240Z,10.07
2017-12-12T15:36:48.657Z,11.20
2017-12-12T15:39:16.083Z,13.00
2017-12-12T15:41:43.508Z,11.90
2017-12-12T15:44:10.928Z,9.52
2017-12-12T15:46:38.333Z,8.55
2017-12-12T15:49:05.751Z,8.32
2017-12-12T15:51:33.162Z,9.48
2017-12-12T15:54:00.575Z,12.18
2017-12-12T15:56:28.007Z,12.73
2017-12-12T15:58:55.414Z,17.42
2017-12-12T16:01:22.822Z,7.37
2017-12-12T16:03:50.258Z,11.70
2017-12-12T16:06:17.663Z,9.70
2017-12-12T16:08:45.079Z,9.15
2017-12-12T16:11:12.506Z,12.25
2017-12-12T16:13:39.939Z,7.90
2017-12-12T16:16:07.354Z,12.85
2017-12-12T16:18:34.784Z,8.13
2017-12-12T16:21:02.206Z,18.27
2017-12-12T16:23:29.602Z,8.00
2017-12-12T16:25:57.018Z,9.75
2017-12-12T16:28:24.431Z,6.20
2017-12-12T16:30:51.851Z,7.30
2017-12-12T16:33:19.274Z,7.62
2017-12-12T16:35:46.682Z,7.80
2017-12-12T16:38:14.090Z,8.85
2017-12-12T16:40:41.510Z,8.48
2017-12-12T16:43:08.916Z,7.45
2017-12-12T16:45:36.324Z,13.27
2017-12-12T16:48:03.755Z,7.60
2017-12-12T16:50:31.158Z,14.13
2017-12-12T16:52:58.588Z,13.82
2017-12-12T16:55:26.009Z,8.93
2017-12-12T16:57:53.422Z,12.37
2017-12-12T17:00:20.844Z,15.07
2017-12-12T17:02:48.274Z,9.18
2017-12-12T17:05:15.679Z,9.40
2017-12-12T17:07:43.086Z,6.28
2017-12-12T17:10:10.523Z,6.35
2017-12-12T17:12:37.935Z,16.08
2017-12-12T17:15:05.339Z,6.68
2017-12-12T17:17:32.758Z,6.10
2017-12-12T17:20:00.163Z,6.35
2017-12-12T17:22:27.586Z,13.90
2017-12-12T17:24:55.003Z,9.23
2017-12-12T17:27:22.410Z,9.45
2017-12-12T17:29:49.847Z,11.57
2017-12-12T17:32:17.255Z,8.52
2017-12-12T17:34:44.662Z,14.80
2017-12-12T17:37:12.090Z,13.70
2017-12-12T17:39:39.494Z,8.18
2017-12-12T17:42:06.907Z,7.62
2017-12-12T17:44:34.357Z,14.38
2017-12-12T17:47:01.762Z,8.98
2017-12-12T17:49:29.170Z,11.70
2017-12-12T17:51:56.603Z,21.37
2017-12-12T17:54:24.007Z,9.95
2017-12-12T17:56:51.420Z,12.93
2017-12-12T17:59:19.030Z,10.32
2017-12-12T18:01:46.459Z,14.35
2017-12-12T18:04:13.871Z,13.82
2017-12-12T18:06:41.300Z,16.23
2017-12-12T18:09:08.711Z,12.48
2017-12-12T18:11:36.127Z,13.27
2017-12-12T18:14:03.548Z,9.77
2017-12-12T18:16:30.968Z,11.20
2017-12-12T18:18:58.374Z,11.50
2017-12-12T18:21:25.800Z,11.48
2017-12-12T18:23:53.214Z,8.55
2017-12-12T18:26:20.615Z,6.95
2017-12-12T18:28:48.046Z,16.42
2017-12-12T18:31:15.459Z,10.73
2017-12-12T18:33:42.866Z,12.07
2017-12-12T18:36:10.299Z,15.50
2017-12-12T18:38:37.703Z,20.52
2017-12-12T18:41:05.119Z,14.05
2017-12-12T18:43:32.542Z,12.98
2017-12-12T18:45:59.951Z,28.27
2017-12-12T18:48:27.371Z,48.58
2017-12-12T18:50:54.799Z,34.75
2017-12-12T18:53:22.219Z,20.30
2017-12-12T18:55:49.634Z,21.85
2017-12-12T18:58:17.062Z,24.52
2017-12-12T19:00:44.483Z,30.65
2017-12-12T19:03:11.904Z,52.83
2017-12-12T19:05:39.330Z,30.55
2017-12-12T19:08:06.755Z,36.33
2017-12-12T19:10:34.170Z,43.83
2017-12-12T19:13:01.607Z,26.92
2017-12-12T19:15:29.043Z,21.10
2017-12-12T19:17:56.455Z,15.32
2017-12-12T19:20:23.887Z,14.45
2017-12-12T19:22:51.302Z,25.17
2017-12-12T19:25:18.718Z,21.12
2017-12-12T19:27:46.151Z,23.87
2017-12-12T19:30:13.567Z,38.28
2017-12-12T19:32:40.992Z,23.52
2017-12-12T19:35:08.425Z,18.98
2017-12-12T19:37:36.062Z,20.12
2017-12-12T19:40:03.584Z,15.55
2017-12-12T19:42:31.263Z,26.37
2017-12-12T19:44:59.119Z,14.52
2017-12-12T19:47:27.063Z,28.95
2017-12-12T19:49:55.394Z,16.58
2017-12-12T19:52:23.327Z,18.20
2017-12-12T19:54:51.491Z,25.12
2017-12-12T19:57:19.276Z,27.67
2017-12-12T19:59:46.873Z,19.45
2017-12-12T20:02:14.800Z,20.77
2017-12-12T20:04:42.906Z,17.33
2017-12-12T20:07:11.049Z,13.45
2017-12-12T20:09:38.955Z,13.15
2017-12-12T20:12:06.833Z,16.75
2017-12-12T20:14:34.500Z,15.35
2017-12-12T20:17:02.242Z,11.32
2017-12-12T20:19:30.084Z,16.35
2017-12-12T20:21:57.695Z,19.58
2017-12-12T20:24:25.574Z,12.52
2017-12-12T20:26:53.203Z,13.15
2017-12-12T20:29:21.123Z,16.60
2017-12-12T20:31:49.035Z,18.08
2017-12-12T20:34:17.176Z,12.35
2017-12-12T20:36:46.703Z,19.20
2017-12-12T20:39:14.963Z,17.67
2017-12-12T20:41:43.233Z,17.45
2017-12-12T20:44:10.975Z,14.38
2017-12-12T20:46:38.522Z,23.95
2017-12-12T20:49:05.981Z,14.70
2017-12-12T20:51:33.485Z,17.90
2017-12-12T20:54:00.981Z,15.10
2017-12-12T20:56:28.573Z,16.67
2017-12-12T20:58:56.201Z,16.60
2017-12-12T21:01:23.665Z,19.83
2017-12-12T21:03:51.731Z,15.35
2017-12-12T21:06:19.191Z,17.50
2017-12-12T21:08:46.619Z,15.02
2017-12-12T21:11:14.038Z,13.80
2017-12-12T21:13:41.486Z,22.48
2017-12-12T21:16:08.925Z,27.75
2017-12-12T21:18:36.347Z,26.98
2017-12-12T21:21:04.388Z,16.67
2017-12-12T21:23:31.807Z,19.87
2017-12-12T21:25:59.223Z,20.27
2017-12-12T21:28:26.659Z,15.73
2017-12-12T21:30:54.096Z,18.75
2017-12-12T21:33:21.523Z,14.18
2017-12-12T21:35:48.960Z,18.50
2017-12-12T21:38:16.374Z,21.00
2017-12-12T21:40:43.799Z,23.35
2017-12-12T21:43:11.239Z,19.25
2017-12-12T21:45:38.672Z,28.70
2017-12-12T21:48:06.089Z,19.73
2017-12-12T21:50:33.531Z,17.37
2017-12-12T21:53:00.962Z,24.12
2017-12-12T21:55:28.375Z,28.85
2017-12-12T21:57:55.802Z,21.95
2017-12-12T22:00:23.226Z,19.08
2017-12-12T22:02:50.660Z,21.62
2017-12-12T22:05:18.091Z,20.88
2017-12-12T22:07:45.507Z,25.80
2017-12-12T22:10:12.921Z,25.75
2017-12-12T22:12:40.358Z,23.30
2017-12-12T22:15:07.777Z,20.02
2017-12-12T22:17:35.195Z,24.12
2017-12-12T22:20:02.632Z,23.38
2017-12-12T22:22:30.049Z,24.95
2017-12-12T22:24:57.467Z,21.75
2017-12-12T22:27:24.959Z,21.30
2017-12-12T22:29:52.342Z,37.53
2017-12-12T22:32:19.750Z,28.15
2017-12-12T22:34:47.183Z,23.80
2017-12-12T22:37:14.608Z,24.83
2017-12-12T22:39:42.027Z,32.47
2017-12-12T22:42:09.459Z,27.62
2017-12-12T22:44:36.877Z,23.55
2017-12-12T22:47:04.295Z,25.62
2017-12-12T22:49:31.723Z,36.80
2017-12-12T22:51:59.153Z,41.45
2017-12-12T22:54:26.563Z,21.42
2017-12-12T22:56:53.994Z,27.42
2017-12-12T22:59:21.414Z,23.00
2017-12-12T23:01:48.825Z,23.08
2017-12-12T23:04:16.263Z,23.17
2017-12-12T23:06:43.675Z,25.88
2017-12-12T23:09:11.100Z,19.83
2017-12-12T23:11:38.540Z,33.25
2017-12-12T23:14:05.963Z,22.62
2017-12-12T23:16:33.380Z,13.32
2017-12-12T23:19:00.803Z,17.62
2017-12-12T23:21:28.206Z,9.85
2017-12-12T23:23:55.618Z,19.25
2017-12-12T23:26:23.051Z,10.43
2017-12-12T23:28:50.470Z,9.23
2017-12-12T23:31:17.896Z,9.23
2017-12-12T23:33:45.317Z,11.00
2017-12-12T23:36:12.724Z,9.63
2017-12-12T23:38:40.154Z,10.60
2017-12-12T23:41:07.564Z,13.60
2017-12-12T23:43:34.975Z,16.35
2017-12-12T23:46:02.404Z,18.48
2017-12-12T23:48:29.824Z,16.75
2017-12-12T23:50:57.230Z,16.62
2017-12-12T23:53:24.670Z,20.15
2017-12-12T23:55:52.099Z,22.30
2017-12-12T23:58:19.502Z,18.75
